sensor_id;sensor_type;location;lat;lon;timestamp;temperature;humidity
53065;DHT22;38948;48.376;-4.312;2023-01-19T00:00:20;17.90;66.10
53065;DHT22;38948;48.376;-4.312;2023-01-19T00:02:46;17.90;65.90
53065;DHT22;38948;48.376;-4.312;2023-01-19T00:05:14;17.90;65.90
53065;DHT22;38948;48.376;-4.312;2023-01-19T00:07:40;17.90;65.80
53065;DHT22;38948;48.376;-4.312;2023-01-19T00:10:07;17.90;65.70
53065;DHT22;38948;48.376;-4.312;2023-01-19T00:12:33;17.90;65.70
53065;DHT22;38948;48.376;-4.312;2023-01-19T00:14:59;17.90;65.60
53065;DHT22;38948;48.376;-4.312;2023-01-19T00:17:24;17.90;65.70
53065;DHT22;38948;48.376;-4.312;2023-01-19T00:19:50;17.80;65.70
53065;DHT22;38948;48.376;-4.312;2023-01-19T00:22:16;17.80;65.60
53065;DHT22;38948;48.376;-4.312;2023-01-19T00:24:42;17.80;65.50
53065;DHT22;38948;48.376;-4.312;2023-01-19T00:27:08;17.80;65.60
53065;DHT22;38948;48.376;-4.312;2023-01-19T00:29:34;17.80;65.60
53065;DHT22;38948;48.376;-4.312;2023-01-19T00:32:01;17.80;65.50
53065;DHT22;38948;48.376;-4.312;2023-01-19T00:34:28;17.80;65.50
53065;DHT22;38948;48.376;-4.312;2023-01-19T00:37:05;17.80;65.50
53065;DHT22;38948;48.376;-4.312;2023-01-19T00:39:31;17.70;65.40
53065;DHT22;38948;48.376;-4.312;2023-01-19T00:41:57;17.70;65.50
53065;DHT22;38948;48.376;-4.312;2023-01-19T00:44:41;17.70;65.60
53065;DHT22;38948;48.376;-4.312;2023-01-19T00:47:07;17.70;65.70
53065;DHT22;38948;48.376;-4.312;2023-01-19T00:49:33;17.70;65.80
53065;DHT22;38948;48.376;-4.312;2023-01-19T00:51:58;17.70;65.60
53065;DHT22;38948;48.376;-4.312;2023-01-19T00:54:24;17.70;65.60
53065;DHT22;38948;48.376;-4.312;2023-01-19T00:56:50;17.60;65.60
53065;DHT22;38948;48.376;-4.312;2023-01-19T00:59:15;17.60;65.50
53065;DHT22;38948;48.376;-4.312;2023-01-19T01:01:41;17.60;65.50
53065;DHT22;38948;48.376;-4.312;2023-01-19T01:04:07;17.60;65.50
53065;DHT22;38948;48.376;-4.312;2023-01-19T01:06:33;17.60;65.50
53065;DHT22;38948;48.376;-4.312;2023-01-19T01:08:58;17.60;65.60
53065;DHT22;38948;48.376;-4.312;2023-01-19T01:11:25;17.50;65.60
53065;DHT22;38948;48.376;-4.312;2023-01-19T01:13:50;17.50;65.50
53065;DHT22;38948;48.376;-4.312;2023-01-19T01:16:17;17.50;65.60
53065;DHT22;38948;48.376;-4.312;2023-01-19T01:18:43;17.50;65.50
53065;DHT22;38948;48.376;-4.312;2023-01-19T01:21:09;17.50;65.50
53065;DHT22;38948;48.376;-4.312;2023-01-19T01:23:37;17.50;65.40
53065;DHT22;38948;48.376;-4.312;2023-01-19T01:26:03;17.50;65.40
53065;DHT22;38948;48.376;-4.312;2023-01-19T01:28:30;17.50;65.40
53065;DHT22;38948;48.376;-4.312;2023-01-19T01:30:56;17.50;65.40
53065;DHT22;38948;48.376;-4.312;2023-01-19T01:33:22;17.40;65.40
53065;DHT22;38948;48.376;-4.312;2023-01-19T01:35:49;17.40;65.50
53065;DHT22;38948;48.376;-4.312;2023-01-19T01:38:16;17.40;65.30
53065;DHT22;38948;48.376;-4.312;2023-01-19T01:40:42;17.40;65.50
53065;DHT22;38948;48.376;-4.312;2023-01-19T01:43:16;17.40;65.60
53065;DHT22;38948;48.376;-4.312;2023-01-19T01:45:43;17.30;65.50
53065;DHT22;38948;48.376;-4.312;2023-01-19T01:48:28;17.30;65.40
53065;DHT22;38948;48.376;-4.312;2023-01-19T01:51:01;17.30;65.50
53065;DHT22;38948;48.376;-4.312;2023-01-19T01:56:46;17.30;65.30
53065;DHT22;38948;48.376;-4.312;2023-01-19T01:59:29;17.30;65.40
53065;DHT22;38948;48.376;-4.312;2023-01-19T02:02:08;17.30;65.40
53065;DHT22;38948;48.376;-4.312;2023-01-19T02:04:57;17.30;65.40
53065;DHT22;38948;48.376;-4.312;2023-01-19T02:10:29;17.30;65.40
53065;DHT22;38948;48.376;-4.312;2023-01-19T02:13:14;17.20;65.40
53065;DHT22;38948;48.376;-4.312;2023-01-19T02:15:47;17.20;65.40
53065;DHT22;38948;48.376;-4.312;2023-01-19T02:18:14;17.10;65.50
53065;DHT22;38948;48.376;-4.312;2023-01-19T02:20:45;17.20;65.30
53065;DHT22;38948;48.376;-4.312;2023-01-19T02:23:26;17.10;65.50
53065;DHT22;38948;48.376;-4.312;2023-01-19T02:25:56;17.20;65.30
53065;DHT22;38948;48.376;-4.312;2023-01-19T02:28:23;17.10;65.30
53065;DHT22;38948;48.376;-4.312;2023-01-19T02:30:50;17.10;65.30
53065;DHT22;38948;48.376;-4.312;2023-01-19T02:33:16;17.10;65.50
53065;DHT22;38948;48.376;-4.312;2023-01-19T02:35:43;17.10;65.50
53065;DHT22;38948;48.376;-4.312;2023-01-19T02:38:11;17.10;65.40
53065;DHT22;38948;48.376;-4.312;2023-01-19T02:40:39;17.10;65.40
53065;DHT22;38948;48.376;-4.312;2023-01-19T02:43:07;17.00;65.50
53065;DHT22;38948;48.376;-4.312;2023-01-19T02:45:35;17.10;65.40
53065;DHT22;38948;48.376;-4.312;2023-01-19T02:48:02;17.10;65.40
53065;DHT22;38948;48.376;-4.312;2023-01-19T02:53:09;17.00;65.50
53065;DHT22;38948;48.376;-4.312;2023-01-19T02:55:38;17.00;65.50
53065;DHT22;38948;48.376;-4.312;2023-01-19T02:58:16;17.00;65.30
53065;DHT22;38948;48.376;-4.312;2023-01-19T03:01:42;17.00;65.40
53065;DHT22;38948;48.376;-4.312;2023-01-19T03:03:57;16.90;65.30
53065;DHT22;38948;48.376;-4.312;2023-01-19T03:06:48;16.90;65.40
53065;DHT22;38948;48.376;-4.312;2023-01-19T03:12:08;16.90;65.40
53065;DHT22;38948;48.376;-4.312;2023-01-19T03:14:40;16.90;65.30
53065;DHT22;38948;48.376;-4.312;2023-01-19T03:17:08;16.90;65.40
53065;DHT22;38948;48.376;-4.312;2023-01-19T03:19:43;16.90;65.30
53065;DHT22;38948;48.376;-4.312;2023-01-19T03:22:21;16.90;65.40
53065;DHT22;38948;48.376;-4.312;2023-01-19T03:24:50;16.80;65.40
53065;DHT22;38948;48.376;-4.312;2023-01-19T03:27:25;16.90;65.30
53065;DHT22;38948;48.376;-4.312;2023-01-19T03:29:57;16.90;65.30
53065;DHT22;38948;48.376;-4.312;2023-01-19T03:32:31;16.80;65.30
53065;DHT22;38948;48.376;-4.312;2023-01-19T03:35:02;16.80;65.40
53065;DHT22;38948;48.376;-4.312;2023-01-19T03:37:30;16.80;65.30
53065;DHT22;38948;48.376;-4.312;2023-01-19T03:39:58;16.80;65.30
53065;DHT22;38948;48.376;-4.312;2023-01-19T03:42:26;16.80;65.30
53065;DHT22;38948;48.376;-4.312;2023-01-19T03:44:54;16.80;65.30
53065;DHT22;38948;48.376;-4.312;2023-01-19T03:47:21;16.80;65.30
53065;DHT22;38948;48.376;-4.312;2023-01-19T03:49:48;16.80;65.30
53065;DHT22;38948;48.376;-4.312;2023-01-19T03:52:16;16.70;65.30
53065;DHT22;38948;48.376;-4.312;2023-01-19T03:54:42;16.70;65.20
53065;DHT22;38948;48.376;-4.312;2023-01-19T03:57:08;16.70;65.30
53065;DHT22;38948;48.376;-4.312;2023-01-19T03:59:34;16.70;65.50
53065;DHT22;38948;48.376;-4.312;2023-01-19T04:02:00;16.70;65.40
53065;DHT22;38948;48.376;-4.312;2023-01-19T04:04:26;16.70;65.40
53065;DHT22;38948;48.376;-4.312;2023-01-19T04:06:52;16.70;65.40
53065;DHT22;38948;48.376;-4.312;2023-01-19T04:09:17;16.60;65.30
53065;DHT22;38948;48.376;-4.312;2023-01-19T04:11:43;16.60;65.30
53065;DHT22;38948;48.376;-4.312;2023-01-19T04:14:09;16.60;65.40
53065;DHT22;38948;48.376;-4.312;2023-01-19T04:16:34;16.60;65.50
53065;DHT22;38948;48.376;-4.312;2023-01-19T04:19:00;16.60;65.30
53065;DHT22;38948;48.376;-4.312;2023-01-19T04:21:26;16.60;65.30
53065;DHT22;38948;48.376;-4.312;2023-01-19T04:23:52;16.60;65.30
53065;DHT22;38948;48.376;-4.312;2023-01-19T04:26:18;16.60;65.30
53065;DHT22;38948;48.376;-4.312;2023-01-19T04:28:44;16.60;65.20
53065;DHT22;38948;48.376;-4.312;2023-01-19T04:31:10;16.60;65.20
53065;DHT22;38948;48.376;-4.312;2023-01-19T04:33:36;16.60;65.20
53065;DHT22;38948;48.376;-4.312;2023-01-19T04:36:02;16.60;65.20
53065;DHT22;38948;48.376;-4.312;2023-01-19T04:38:28;16.60;65.40
53065;DHT22;38948;48.376;-4.312;2023-01-19T04:40:54;16.60;65.30
53065;DHT22;38948;48.376;-4.312;2023-01-19T04:43:21;16.50;65.20
53065;DHT22;38948;48.376;-4.312;2023-01-19T04:45:47;16.50;65.30
53065;DHT22;38948;48.376;-4.312;2023-01-19T04:48:14;16.50;65.20
53065;DHT22;38948;48.376;-4.312;2023-01-19T04:50:40;16.50;65.20
53065;DHT22;38948;48.376;-4.312;2023-01-19T04:53:09;16.50;65.30
53065;DHT22;38948;48.376;-4.312;2023-01-19T04:55:36;16.50;65.30
53065;DHT22;38948;48.376;-4.312;2023-01-19T04:58:03;16.40;65.30
53065;DHT22;38948;48.376;-4.312;2023-01-19T05:00:28;16.50;65.30
53065;DHT22;38948;48.376;-4.312;2023-01-19T05:02:54;16.40;65.10
53065;DHT22;38948;48.376;-4.312;2023-01-19T05:05:20;16.40;65.20
53065;DHT22;38948;48.376;-4.312;2023-01-19T05:07:46;16.50;65.20
53065;DHT22;38948;48.376;-4.312;2023-01-19T05:10:12;16.40;65.10
53065;DHT22;38948;48.376;-4.312;2023-01-19T05:12:38;16.40;65.30
53065;DHT22;38948;48.376;-4.312;2023-01-19T05:15:04;16.40;65.30
53065;DHT22;38948;48.376;-4.312;2023-01-19T05:17:32;16.40;65.10
53065;DHT22;38948;48.376;-4.312;2023-01-19T05:19:57;16.40;65.10
53065;DHT22;38948;48.376;-4.312;2023-01-19T05:22:23;16.40;65.00
53065;DHT22;38948;48.376;-4.312;2023-01-19T05:24:49;16.40;65.10
53065;DHT22;38948;48.376;-4.312;2023-01-19T05:27:15;16.40;65.10
53065;DHT22;38948;48.376;-4.312;2023-01-19T05:29:40;16.40;65.20
53065;DHT22;38948;48.376;-4.312;2023-01-19T05:32:06;16.40;65.20
53065;DHT22;38948;48.376;-4.312;2023-01-19T05:34:32;16.40;65.10
53065;DHT22;38948;48.376;-4.312;2023-01-19T05:36:57;16.40;64.90
53065;DHT22;38948;48.376;-4.312;2023-01-19T05:39:23;16.40;65.00
53065;DHT22;38948;48.376;-4.312;2023-01-19T05:41:51;16.40;64.90
53065;DHT22;38948;48.376;-4.312;2023-01-19T05:44:17;16.40;65.00
53065;DHT22;38948;48.376;-4.312;2023-01-19T05:46:42;16.40;65.00
53065;DHT22;38948;48.376;-4.312;2023-01-19T05:49:08;16.40;64.90
53065;DHT22;38948;48.376;-4.312;2023-01-19T05:51:34;16.40;65.00
53065;DHT22;38948;48.376;-4.312;2023-01-19T05:54:06;16.40;64.90
53065;DHT22;38948;48.376;-4.312;2023-01-19T05:56:33;16.50;64.90
53065;DHT22;38948;48.376;-4.312;2023-01-19T05:59:00;16.40;64.90
53065;DHT22;38948;48.376;-4.312;2023-01-19T06:01:26;16.50;65.00
53065;DHT22;38948;48.376;-4.312;2023-01-19T06:03:52;16.50;64.90
53065;DHT22;38948;48.376;-4.312;2023-01-19T06:06:18;16.50;64.80
53065;DHT22;38948;48.376;-4.312;2023-01-19T06:08:44;16.50;64.90
53065;DHT22;38948;48.376;-4.312;2023-01-19T06:11:10;16.50;64.90
53065;DHT22;38948;48.376;-4.312;2023-01-19T06:13:36;16.50;64.70
53065;DHT22;38948;48.376;-4.312;2023-01-19T06:16:05;16.50;64.90
53065;DHT22;38948;48.376;-4.312;2023-01-19T06:18:31;16.50;64.90
53065;DHT22;38948;48.376;-4.312;2023-01-19T06:20:57;16.50;64.90
53065;DHT22;38948;48.376;-4.312;2023-01-19T06:23:28;16.50;64.90
53065;DHT22;38948;48.376;-4.312;2023-01-19T06:25:54;16.60;64.80
53065;DHT22;38948;48.376;-4.312;2023-01-19T06:28:19;16.60;64.80
53065;DHT22;38948;48.376;-4.312;2023-01-19T06:30:49;16.60;64.80
53065;DHT22;38948;48.376;-4.312;2023-01-19T06:33:16;16.60;64.70
53065;DHT22;38948;48.376;-4.312;2023-01-19T06:35:43;16.60;64.80
53065;DHT22;38948;48.376;-4.312;2023-01-19T06:38:09;16.60;64.80
53065;DHT22;38948;48.376;-4.312;2023-01-19T06:40:34;16.60;64.70
53065;DHT22;38948;48.376;-4.312;2023-01-19T06:43:00;16.70;64.80
53065;DHT22;38948;48.376;-4.312;2023-01-19T06:45:26;16.70;64.80
53065;DHT22;38948;48.376;-4.312;2023-01-19T06:47:52;16.70;64.70
53065;DHT22;38948;48.376;-4.312;2023-01-19T06:50:18;16.70;64.50
53065;DHT22;38948;48.376;-4.312;2023-01-19T06:52:43;16.70;64.60
53065;DHT22;38948;48.376;-4.312;2023-01-19T06:55:10;16.70;64.60
53065;DHT22;38948;48.376;-4.312;2023-01-19T06:57:37;16.70;64.50
53065;DHT22;38948;48.376;-4.312;2023-01-19T07:00:04;16.80;64.60
53065;DHT22;38948;48.376;-4.312;2023-01-19T07:02:36;16.70;64.60
53065;DHT22;38948;48.376;-4.312;2023-01-19T07:05:02;16.80;64.60
53065;DHT22;38948;48.376;-4.312;2023-01-19T07:07:28;16.80;64.60
53065;DHT22;38948;48.376;-4.312;2023-01-19T07:09:54;16.80;64.60
53065;DHT22;38948;48.376;-4.312;2023-01-19T07:12:21;16.80;64.50
53065;DHT22;38948;48.376;-4.312;2023-01-19T07:14:47;16.80;64.60
53065;DHT22;38948;48.376;-4.312;2023-01-19T07:17:14;16.80;64.50
53065;DHT22;38948;48.376;-4.312;2023-01-19T07:19:40;16.80;64.40
53065;DHT22;38948;48.376;-4.312;2023-01-19T07:22:05;16.80;64.50
53065;DHT22;38948;48.376;-4.312;2023-01-19T07:24:31;16.80;64.50
53065;DHT22;38948;48.376;-4.312;2023-01-19T07:26:58;16.90;64.50
53065;DHT22;38948;48.376;-4.312;2023-01-19T07:29:24;16.90;64.40
53065;DHT22;38948;48.376;-4.312;2023-01-19T07:31:50;16.90;64.50
53065;DHT22;38948;48.376;-4.312;2023-01-19T07:34:19;16.90;64.50
53065;DHT22;38948;48.376;-4.312;2023-01-19T07:36:45;16.90;64.50
53065;DHT22;38948;48.376;-4.312;2023-01-19T07:39:12;16.90;64.60
53065;DHT22;38948;48.376;-4.312;2023-01-19T07:41:41;17.00;64.80
53065;DHT22;38948;48.376;-4.312;2023-01-19T07:44:07;17.00;66.80
53065;DHT22;38948;48.376;-4.312;2023-01-19T07:46:33;17.00;66.80
53065;DHT22;38948;48.376;-4.312;2023-01-19T07:48:59;17.10;66.80
53065;DHT22;38948;48.376;-4.312;2023-01-19T07:51:24;17.10;67.00
53065;DHT22;38948;48.376;-4.312;2023-01-19T07:53:52;17.10;67.50
53065;DHT22;38948;48.376;-4.312;2023-01-19T07:56:18;17.10;67.30
53065;DHT22;38948;48.376;-4.312;2023-01-19T07:58:43;17.10;67.60
53065;DHT22;38948;48.376;-4.312;2023-01-19T08:01:11;17.20;67.90
53065;DHT22;38948;48.376;-4.312;2023-01-19T08:03:37;17.30;68.10
53065;DHT22;38948;48.376;-4.312;2023-01-19T08:06:04;17.30;68.50
53065;DHT22;38948;48.376;-4.312;2023-01-19T08:08:31;17.30;68.40
53065;DHT22;38948;48.376;-4.312;2023-01-19T08:10:57;17.30;68.50
53065;DHT22;38948;48.376;-4.312;2023-01-19T08:13:23;17.40;68.60
53065;DHT22;38948;48.376;-4.312;2023-01-19T08:15:50;17.40;68.50
53065;DHT22;38948;48.376;-4.312;2023-01-19T08:18:16;17.40;68.60
53065;DHT22;38948;48.376;-4.312;2023-01-19T08:20:43;17.40;68.40
53065;DHT22;38948;48.376;-4.312;2023-01-19T08:23:09;17.40;68.50
53065;DHT22;38948;48.376;-4.312;2023-01-19T08:25:39;17.40;68.60
53065;DHT22;38948;48.376;-4.312;2023-01-19T08:28:10;17.50;68.60
53065;DHT22;38948;48.376;-4.312;2023-01-19T08:30:37;17.60;68.40
53065;DHT22;38948;48.376;-4.312;2023-01-19T08:33:04;17.60;68.50
53065;DHT22;38948;48.376;-4.312;2023-01-19T08:35:37;17.60;69.10
53065;DHT22;38948;48.376;-4.312;2023-01-19T08:38:04;17.70;69.00
53065;DHT22;38948;48.376;-4.312;2023-01-19T08:40:32;17.60;69.80
53065;DHT22;38948;48.376;-4.312;2023-01-19T08:43:04;17.80;70.30
53065;DHT22;38948;48.376;-4.312;2023-01-19T08:45:31;17.90;69.70
53065;DHT22;38948;48.376;-4.312;2023-01-19T08:47:57;18.10;69.80
53065;DHT22;38948;48.376;-4.312;2023-01-19T08:50:31;18.10;69.80
53065;DHT22;38948;48.376;-4.312;2023-01-19T08:52:58;18.10;70.00
53065;DHT22;38948;48.376;-4.312;2023-01-19T08:55:25;18.20;69.90
53065;DHT22;38948;48.376;-4.312;2023-01-19T08:57:51;18.30;69.60
53065;DHT22;38948;48.376;-4.312;2023-01-19T09:00:19;18.40;69.80
53065;DHT22;38948;48.376;-4.312;2023-01-19T09:02:46;18.50;69.70
53065;DHT22;38948;48.376;-4.312;2023-01-19T09:05:16;18.50;69.80
53065;DHT22;38948;48.376;-4.312;2023-01-19T09:07:43;18.60;69.70
53065;DHT22;38948;48.376;-4.312;2023-01-19T09:10:10;18.60;69.80
53065;DHT22;38948;48.376;-4.312;2023-01-19T09:12:36;18.70;69.90
53065;DHT22;38948;48.376;-4.312;2023-01-19T09:15:02;18.70;70.00
53065;DHT22;38948;48.376;-4.312;2023-01-19T09:17:27;18.70;69.90
53065;DHT22;38948;48.376;-4.312;2023-01-19T09:19:53;18.80;69.60
53065;DHT22;38948;48.376;-4.312;2023-01-19T09:22:19;18.80;69.80
53065;DHT22;38948;48.376;-4.312;2023-01-19T09:24:45;18.80;69.30
53065;DHT22;38948;48.376;-4.312;2023-01-19T09:27:10;18.90;69.40
53065;DHT22;38948;48.376;-4.312;2023-01-19T09:29:36;18.90;69.20
53065;DHT22;38948;48.376;-4.312;2023-01-19T09:32:02;18.80;69.10
53065;DHT22;38948;48.376;-4.312;2023-01-19T09:34:27;18.80;68.70
53065;DHT22;38948;48.376;-4.312;2023-01-19T09:36:54;18.80;68.50
53065;DHT22;38948;48.376;-4.312;2023-01-19T09:39:19;18.80;68.60
53065;DHT22;38948;48.376;-4.312;2023-01-19T09:41:49;18.80;69.70
53065;DHT22;38948;48.376;-4.312;2023-01-19T09:44:28;18.90;69.70
53065;DHT22;38948;48.376;-4.312;2023-01-19T09:46:56;19.00;70.00
53065;DHT22;38948;48.376;-4.312;2023-01-19T09:49:32;19.00;69.70
53065;DHT22;38948;48.376;-4.312;2023-01-19T09:51:59;19.10;69.90
53065;DHT22;38948;48.376;-4.312;2023-01-19T09:54:34;19.10;69.70
53065;DHT22;38948;48.376;-4.312;2023-01-19T09:57:01;19.10;69.70
53065;DHT22;38948;48.376;-4.312;2023-01-19T09:59:31;19.20;69.70
53065;DHT22;38948;48.376;-4.312;2023-01-19T10:04:42;19.20;69.70
53065;DHT22;38948;48.376;-4.312;2023-01-19T10:10:21;19.30;69.80
53065;DHT22;38948;48.376;-4.312;2023-01-19T10:13:17;19.30;69.70
53065;DHT22;38948;48.376;-4.312;2023-01-19T10:18:48;19.30;69.50
53065;DHT22;38948;48.376;-4.312;2023-01-19T10:21:22;19.40;69.40
53065;DHT22;38948;48.376;-4.312;2023-01-19T10:23:58;19.50;69.40
53065;DHT22;38948;48.376;-4.312;2023-01-19T10:26:49;19.50;69.20
53065;DHT22;38948;48.376;-4.312;2023-01-19T10:29:36;19.50;69.20
53065;DHT22;38948;48.376;-4.312;2023-01-19T10:32:28;19.50;69.30
53065;DHT22;38948;48.376;-4.312;2023-01-19T10:34:55;19.50;69.30
53065;DHT22;38948;48.376;-4.312;2023-01-19T10:40:01;19.50;69.60
53065;DHT22;38948;48.376;-4.312;2023-01-19T10:42:30;19.50;69.30
53065;DHT22;38948;48.376;-4.312;2023-01-19T10:44:56;19.40;69.00
53065;DHT22;38948;48.376;-4.312;2023-01-19T10:47:29;19.40;68.90
53065;DHT22;38948;48.376;-4.312;2023-01-19T10:49:56;19.30;68.70
53065;DHT22;38948;48.376;-4.312;2023-01-19T10:52:32;19.30;68.60
53065;DHT22;38948;48.376;-4.312;2023-01-19T10:55:00;19.30;68.90
53065;DHT22;38948;48.376;-4.312;2023-01-19T10:57:27;19.30;69.10
53065;DHT22;38948;48.376;-4.312;2023-01-19T10:59:54;19.30;69.10
53065;DHT22;38948;48.376;-4.312;2023-01-19T11:04:54;19.30;69.10
53065;DHT22;38948;48.376;-4.312;2023-01-19T11:09:47;19.40;69.10
53065;DHT22;38948;48.376;-4.312;2023-01-19T11:12:21;19.40;69.10
53065;DHT22;38948;48.376;-4.312;2023-01-19T11:14:49;19.40;69.00
53065;DHT22;38948;48.376;-4.312;2023-01-19T11:17:23;19.40;68.90
53065;DHT22;38948;48.376;-4.312;2023-01-19T11:20:01;19.40;68.80
53065;DHT22;38948;48.376;-4.312;2023-01-19T11:22:29;19.40;68.70
53065;DHT22;38948;48.376;-4.312;2023-01-19T11:25:01;19.40;68.70
53065;DHT22;38948;48.376;-4.312;2023-01-19T11:27:30;19.40;68.40
53065;DHT22;38948;48.376;-4.312;2023-01-19T11:30:18;19.40;68.30
53065;DHT22;38948;48.376;-4.312;2023-01-19T11:32:45;19.40;68.90
53065;DHT22;38948;48.376;-4.312;2023-01-19T11:38:20;19.50;68.80
53065;DHT22;38948;48.376;-4.312;2023-01-19T11:40:59;19.50;69.10
53065;DHT22;38948;48.376;-4.312;2023-01-19T11:43:29;19.60;69.00
53065;DHT22;38948;48.376;-4.312;2023-01-19T11:45:56;19.60;68.80
53065;DHT22;38948;48.376;-4.312;2023-01-19T11:50:54;19.60;69.00
53065;DHT22;38948;48.376;-4.312;2023-01-19T11:53:24;19.60;69.10
53065;DHT22;38948;48.376;-4.312;2023-01-19T11:56:06;19.60;69.00
53065;DHT22;38948;48.376;-4.312;2023-01-19T11:58:37;19.50;69.20
53065;DHT22;38948;48.376;-4.312;2023-01-19T12:01:05;19.50;69.20
53065;DHT22;38948;48.376;-4.312;2023-01-19T12:03:45;19.50;69.60
53065;DHT22;38948;48.376;-4.312;2023-01-19T12:06:19;19.50;69.50
53065;DHT22;38948;48.376;-4.312;2023-01-19T12:08:50;19.50;69.30
53065;DHT22;38948;48.376;-4.312;2023-01-19T12:11:31;19.40;69.70
53065;DHT22;38948;48.376;-4.312;2023-01-19T12:13:59;19.50;69.60
53065;DHT22;38948;48.376;-4.312;2023-01-19T12:16:29;19.50;69.70
53065;DHT22;38948;48.376;-4.312;2023-01-19T12:19:14;19.50;69.80
53065;DHT22;38948;48.376;-4.312;2023-01-19T12:21:41;19.50;70.30
53065;DHT22;38948;48.376;-4.312;2023-01-19T12:24:24;19.50;70.20
53065;DHT22;38948;48.376;-4.312;2023-01-19T12:26:59;19.50;70.20
53065;DHT22;38948;48.376;-4.312;2023-01-19T12:29:27;19.60;70.30
53065;DHT22;38948;48.376;-4.312;2023-01-19T12:32:16;19.60;70.20
53065;DHT22;38948;48.376;-4.312;2023-01-19T12:34:49;19.60;69.80
53065;DHT22;38948;48.376;-4.312;2023-01-19T12:37:35;19.60;69.80
53065;DHT22;38948;48.376;-4.312;2023-01-19T12:40:23;19.70;69.50
53065;DHT22;38948;48.376;-4.312;2023-01-19T12:42:59;19.70;69.70
53065;DHT22;38948;48.376;-4.312;2023-01-19T12:45:44;19.70;69.50
53065;DHT22;38948;48.376;-4.312;2023-01-19T12:50:51;19.70;69.30
53065;DHT22;38948;48.376;-4.312;2023-01-19T12:53:20;19.70;69.40
53065;DHT22;38948;48.376;-4.312;2023-01-19T12:55:57;19.70;69.40
53065;DHT22;38948;48.376;-4.312;2023-01-19T12:58:24;19.80;69.80
53065;DHT22;38948;48.376;-4.312;2023-01-19T13:01:13;19.80;69.50
53065;DHT22;38948;48.376;-4.312;2023-01-19T13:04:28;19.90;69.40
53065;DHT22;38948;48.376;-4.312;2023-01-19T13:09:30;19.80;68.70
53065;DHT22;38948;48.376;-4.312;2023-01-19T13:12:21;19.70;68.80
53065;DHT22;38948;48.376;-4.312;2023-01-19T13:14:48;19.70;69.20
53065;DHT22;38948;48.376;-4.312;2023-01-19T13:25:30;19.70;69.10
53065;DHT22;38948;48.376;-4.312;2023-01-19T13:27:58;19.70;69.10
53065;DHT22;38948;48.376;-4.312;2023-01-19T13:30:27;19.70;69.40
53065;DHT22;38948;48.376;-4.312;2023-01-19T13:32:55;19.70;69.50
53065;DHT22;38948;48.376;-4.312;2023-01-19T13:35:22;19.70;69.60
53065;DHT22;38948;48.376;-4.312;2023-01-19T13:37:49;19.70;69.90
53065;DHT22;38948;48.376;-4.312;2023-01-19T13:40:19;19.70;69.80
53065;DHT22;38948;48.376;-4.312;2023-01-19T13:42:46;19.70;69.30
53065;DHT22;38948;48.376;-4.312;2023-01-19T13:48:16;19.70;69.70
53065;DHT22;38948;48.376;-4.312;2023-01-19T13:50:59;19.70;69.80
53065;DHT22;38948;48.376;-4.312;2023-01-19T13:53:25;19.70;71.00
53065;DHT22;38948;48.376;-4.312;2023-01-19T13:56:08;19.70;71.60
53065;DHT22;38948;48.376;-4.312;2023-01-19T13:58:34;19.60;72.10
53065;DHT22;38948;48.376;-4.312;2023-01-19T14:01:00;19.70;72.90
53065;DHT22;38948;48.376;-4.312;2023-01-19T14:03:26;19.70;72.80
53065;DHT22;38948;48.376;-4.312;2023-01-19T14:05:53;19.70;73.00
53065;DHT22;38948;48.376;-4.312;2023-01-19T14:08:21;19.70;73.30
53065;DHT22;38948;48.376;-4.312;2023-01-19T14:10:59;19.70;73.40
53065;DHT22;38948;48.376;-4.312;2023-01-19T14:13:29;19.70;73.40
53065;DHT22;38948;48.376;-4.312;2023-01-19T14:15:57;19.70;73.30
53065;DHT22;38948;48.376;-4.312;2023-01-19T14:18:31;19.80;73.30
53065;DHT22;38948;48.376;-4.312;2023-01-19T14:23:45;19.80;73.80
53065;DHT22;38948;48.376;-4.312;2023-01-19T14:31:48;19.80;74.20
53065;DHT22;38948;48.376;-4.312;2023-01-19T14:34:49;19.80;74.20
53065;DHT22;38948;48.376;-4.312;2023-01-19T14:37:30;19.80;74.10
53065;DHT22;38948;48.376;-4.312;2023-01-19T14:40:01;19.90;73.80
53065;DHT22;38948;48.376;-4.312;2023-01-19T14:42:55;19.80;73.80
53065;DHT22;38948;48.376;-4.312;2023-01-19T14:48:02;19.80;73.50
53065;DHT22;38948;48.376;-4.312;2023-01-19T14:50:32;19.80;73.10
53065;DHT22;38948;48.376;-4.312;2023-01-19T14:53:11;19.80;72.80
53065;DHT22;38948;48.376;-4.312;2023-01-19T14:55:58;19.80;73.60
53065;DHT22;38948;48.376;-4.312;2023-01-19T14:58:27;19.80;73.80
53065;DHT22;38948;48.376;-4.312;2023-01-19T15:00:55;19.80;73.20
53065;DHT22;38948;48.376;-4.312;2023-01-19T15:03:25;19.80;72.90
53065;DHT22;38948;48.376;-4.312;2023-01-19T15:05:52;19.80;72.50
53065;DHT22;38948;48.376;-4.312;2023-01-19T15:10:52;19.80;72.30
53065;DHT22;38948;48.376;-4.312;2023-01-19T15:13:21;19.80;72.20
53065;DHT22;38948;48.376;-4.312;2023-01-19T15:15:48;19.80;72.50
53065;DHT22;38948;48.376;-4.312;2023-01-19T15:18:16;19.80;72.70
53065;DHT22;38948;48.376;-4.312;2023-01-19T15:20:43;19.70;72.40
53065;DHT22;38948;48.376;-4.312;2023-01-19T15:23:10;19.70;72.40
53065;DHT22;38948;48.376;-4.312;2023-01-19T15:25:36;19.70;72.90
53065;DHT22;38948;48.376;-4.312;2023-01-19T15:28:15;19.70;72.60
53065;DHT22;38948;48.376;-4.312;2023-01-19T15:30:41;19.70;72.10
53065;DHT22;38948;48.376;-4.312;2023-01-19T15:33:19;19.70;70.90
53065;DHT22;38948;48.376;-4.312;2023-01-19T15:35:45;19.80;70.40
53065;DHT22;38948;48.376;-4.312;2023-01-19T15:38:11;19.90;70.60
53065;DHT22;38948;48.376;-4.312;2023-01-19T15:40:37;20.00;70.40
53065;DHT22;38948;48.376;-4.312;2023-01-19T15:43:03;20.00;70.20
53065;DHT22;38948;48.376;-4.312;2023-01-19T15:45:42;20.00;70.30
53065;DHT22;38948;48.376;-4.312;2023-01-19T15:48:10;20.10;70.20
53065;DHT22;38948;48.376;-4.312;2023-01-19T15:50:38;20.10;70.50
53065;DHT22;38948;48.376;-4.312;2023-01-19T15:53:05;20.10;70.50
53065;DHT22;38948;48.376;-4.312;2023-01-19T15:55:31;20.10;70.40
53065;DHT22;38948;48.376;-4.312;2023-01-19T15:57:58;20.10;70.20
53065;DHT22;38948;48.376;-4.312;2023-01-19T16:00:30;20.10;70.50
53065;DHT22;38948;48.376;-4.312;2023-01-19T16:02:56;20.10;70.00
53065;DHT22;38948;48.376;-4.312;2023-01-19T16:05:23;20.10;69.80
53065;DHT22;38948;48.376;-4.312;2023-01-19T16:07:49;20.00;69.80
53065;DHT22;38948;48.376;-4.312;2023-01-19T16:10:15;20.00;69.70
53065;DHT22;38948;48.376;-4.312;2023-01-19T16:12:43;20.00;69.60
53065;DHT22;38948;48.376;-4.312;2023-01-19T16:15:09;19.90;70.10
53065;DHT22;38948;48.376;-4.312;2023-01-19T16:17:35;20.00;70.10
53065;DHT22;38948;48.376;-4.312;2023-01-19T16:20:02;20.00;70.40
53065;DHT22;38948;48.376;-4.312;2023-01-19T16:22:28;20.00;69.60
53065;DHT22;38948;48.376;-4.312;2023-01-19T16:24:54;19.90;69.70
53065;DHT22;38948;48.376;-4.312;2023-01-19T16:27:22;19.80;69.40
53065;DHT22;38948;48.376;-4.312;2023-01-19T16:29:48;19.80;69.10
53065;DHT22;38948;48.376;-4.312;2023-01-19T16:32:14;19.80;69.30